sensor_id;sensor_type;location;lat;lon;timestamp;P1;durP1;ratioP1;P2;durP2;ratioP2
14300;SDS011;7234;59.306;18.024;2024-01-30T00:00:09;15.20;;;7.60;;
14300;SDS011;7234;59.306;18.024;2024-01-30T00:02:36;18.63;;;7.63;;
14300;SDS011;7234;59.306;18.024;2024-01-30T00:05:03;16.23;;;7.63;;
14300;SDS011;7234;59.306;18.024;2024-01-30T00:07:31;20.33;;;7.67;;
14300;SDS011;7234;59.306;18.024;2024-01-30T00:09:58;18.93;;;7.20;;
14300;SDS011;7234;59.306;18.024;2024-01-30T00:12:25;20.50;;;7.20;;
14300;SDS011;7234;59.306;18.024;2024-01-30T00:14:52;22.70;;;7.50;;
14300;SDS011;7234;59.306;18.024;2024-01-30T00:17:21;16.37;;;6.63;;
14300;SDS011;7234;59.306;18.024;2024-01-30T00:19:50;18.83;;;7.40;;
14300;SDS011;7234;59.306;18.024;2024-01-30T00:22:17;16.03;;;7.13;;
14300;SDS011;7234;59.306;18.024;2024-01-30T00:24:44;18.50;;;7.33;;
14300;SDS011;7234;59.306;18.024;2024-01-30T00:27:11;14.43;;;6.87;;
14300;SDS011;7234;59.306;18.024;2024-01-30T00:29:38;16.53;;;6.80;;
14300;SDS011;7234;59.306;18.024;2024-01-30T00:32:05;20.30;;;7.83;;
14300;SDS011;7234;59.306;18.024;2024-01-30T00:34:34;16.87;;;7.23;;
14300;SDS011;7234;59.306;18.024;2024-01-30T00:37:01;21.70;;;8.00;;
14300;SDS011;7234;59.306;18.024;2024-01-30T00:39:29;17.43;;;7.70;;
14300;SDS011;7234;59.306;18.024;2024-01-30T00:41:56;15.83;;;7.00;;
14300;SDS011;7234;59.306;18.024;2024-01-30T00:44:23;15.10;;;7.30;;
14300;SDS011;7234;59.306;18.024;2024-01-30T00:46:50;16.97;;;7.63;;
14300;SDS011;7234;59.306;18.024;2024-01-30T00:49:16;18.60;;;6.83;;
14300;SDS011;7234;59.306;18.024;2024-01-30T00:51:45;16.23;;;7.13;;
14300;SDS011;7234;59.306;18.024;2024-01-30T00:54:12;14.40;;;7.50;;
14300;SDS011;7234;59.306;18.024;2024-01-30T00:56:39;16.60;;;7.80;;
14300;SDS011;7234;59.306;18.024;2024-01-30T00:59:06;22.10;;;8.47;;
14300;SDS011;7234;59.306;18.024;2024-01-30T01:01:33;18.13;;;7.07;;
14300;SDS011;7234;59.306;18.024;2024-01-30T01:04:00;15.47;;;7.37;;
14300;SDS011;7234;59.306;18.024;2024-01-30T01:06:27;16.33;;;7.60;;
14300;SDS011;7234;59.306;18.024;2024-01-30T01:08:56;21.20;;;8.23;;
14300;SDS011;7234;59.306;18.024;2024-01-30T01:11:23;22.80;;;8.37;;
14300;SDS011;7234;59.306;18.024;2024-01-30T01:13:50;17.07;;;7.43;;
14300;SDS011;7234;59.306;18.024;2024-01-30T01:16:17;19.40;;;8.57;;
14300;SDS011;7234;59.306;18.024;2024-01-30T01:18:47;21.03;;;8.17;;
14300;SDS011;7234;59.306;18.024;2024-01-30T01:21:14;19.17;;;7.97;;
14300;SDS011;7234;59.306;18.024;2024-01-30T01:23:41;17.53;;;7.57;;
14300;SDS011;7234;59.306;18.024;2024-01-30T01:26:10;19.57;;;7.60;;
14300;SDS011;7234;59.306;18.024;2024-01-30T01:28:39;17.30;;;7.77;;
14300;SDS011;7234;59.306;18.024;2024-01-30T01:31:06;22.03;;;8.27;;
14300;SDS011;7234;59.306;18.024;2024-01-30T01:33:34;17.07;;;7.87;;
14300;SDS011;7234;59.306;18.024;2024-01-30T01:36:03;16.10;;;7.20;;
14300;SDS011;7234;59.306;18.024;2024-01-30T01:38:31;20.10;;;7.73;;
14300;SDS011;7234;59.306;18.024;2024-01-30T01:40:59;17.27;;;7.80;;
14300;SDS011;7234;59.306;18.024;2024-01-30T01:43:27;19.20;;;8.40;;
14300;SDS011;7234;59.306;18.024;2024-01-30T01:45:55;20.50;;;8.83;;
14300;SDS011;7234;59.306;18.024;2024-01-30T01:48:22;20.20;;;8.03;;
14300;SDS011;7234;59.306;18.024;2024-01-30T01:50:49;21.40;;;8.37;;
14300;SDS011;7234;59.306;18.024;2024-01-30T01:53:16;23.40;;;8.23;;
14300;SDS011;7234;59.306;18.024;2024-01-30T01:55:45;14.80;;;7.30;;
14300;SDS011;7234;59.306;18.024;2024-01-30T01:58:12;20.70;;;7.37;;
14300;SDS011;7234;59.306;18.024;2024-01-30T02:00:41;13.93;;;7.93;;
14300;SDS011;7234;59.306;18.024;2024-01-30T02:03:09;15.53;;;7.30;;
14300;SDS011;7234;59.306;18.024;2024-01-30T02:05:38;16.33;;;7.50;;
14300;SDS011;7234;59.306;18.024;2024-01-30T02:08:06;21.73;;;7.90;;
14300;SDS011;7234;59.306;18.024;2024-01-30T02:10:34;15.57;;;7.07;;
14300;SDS011;7234;59.306;18.024;2024-01-30T02:13:01;15.23;;;8.03;;
14300;SDS011;7234;59.306;18.024;2024-01-30T02:15:29;13.83;;;7.80;;
14300;SDS011;7234;59.306;18.024;2024-01-30T02:17:58;14.60;;;6.87;;
14300;SDS011;7234;59.306;18.024;2024-01-30T02:20:25;18.93;;;8.23;;
14300;SDS011;7234;59.306;18.024;2024-01-30T02:22:57;16.17;;;7.13;;
14300;SDS011;7234;59.306;18.024;2024-01-30T02:25:35;15.73;;;7.43;;
14300;SDS011;7234;59.306;18.024;2024-01-30T02:28:09;15.87;;;7.80;;
14300;SDS011;7234;59.306;18.024;2024-01-30T02:30:36;18.80;;;8.00;;
14300;SDS011;7234;59.306;18.024;2024-01-30T02:33:03;13.43;;;7.63;;
14300;SDS011;7234;59.306;18.024;2024-01-30T02:35:30;23.87;;;8.47;;
14300;SDS011;7234;59.306;18.024;2024-01-30T02:38:00;21.57;;;8.03;;
14300;SDS011;7234;59.306;18.024;2024-01-30T02:40:27;45.73;;;9.13;;
14300;SDS011;7234;59.306;18.024;2024-01-30T02:42:54;33.20;;;8.90;;
14300;SDS011;7234;59.306;18.024;2024-01-30T02:45:21;18.67;;;7.87;;
14300;SDS011;7234;59.306;18.024;2024-01-30T02:47:48;25.83;;;9.53;;
14300;SDS011;7234;59.306;18.024;2024-01-30T02:50:15;23.47;;;9.90;;
14300;SDS011;7234;59.306;18.024;2024-01-30T02:52:42;29.30;;;9.73;;
14300;SDS011;7234;59.306;18.024;2024-01-30T02:55:10;27.00;;;9.73;;
14300;SDS011;7234;59.306;18.024;2024-01-30T02:57:37;20.17;;;8.40;;
14300;SDS011;7234;59.306;18.024;2024-01-30T03:00:05;22.43;;;8.03;;
14300;SDS011;7234;59.306;18.024;2024-01-30T03:02:34;21.73;;;8.37;;
14300;SDS011;7234;59.306;18.024;2024-01-30T03:05:01;18.33;;;8.63;;
14300;SDS011;7234;59.306;18.024;2024-01-30T03:07:29;16.60;;;8.37;;
14300;SDS011;7234;59.306;18.024;2024-01-30T03:09:56;18.60;;;8.20;;
14300;SDS011;7234;59.306;18.024;2024-01-30T03:12:25;14.33;;;7.30;;
14300;SDS011;7234;59.306;18.024;2024-01-30T03:14:52;13.27;;;6.83;;
14300;SDS011;7234;59.306;18.024;2024-01-30T03:17:19;9.13;;;5.57;;
14300;SDS011;7234;59.306;18.024;2024-01-30T03:19:46;12.63;;;6.17;;
14300;SDS011;7234;59.306;18.024;2024-01-30T03:22:13;11.83;;;5.77;;
14300;SDS011;7234;59.306;18.024;2024-01-30T03:24:40;10.20;;;6.23;;
14300;SDS011;7234;59.306;18.024;2024-01-30T03:27:07;9.00;;;6.07;;
14300;SDS011;7234;59.306;18.024;2024-01-30T03:29:36;9.37;;;5.87;;
14300;SDS011;7234;59.306;18.024;2024-01-30T03:32:03;13.57;;;5.77;;
14300;SDS011;7234;59.306;18.024;2024-01-30T03:34:31;10.53;;;6.13;;
14300;SDS011;7234;59.306;18.024;2024-01-30T03:36:58;11.53;;;6.20;;
14300;SDS011;7234;59.306;18.024;2024-01-30T03:39:24;16.97;;;5.87;;
14300;SDS011;7234;59.306;18.024;2024-01-30T03:41:52;10.07;;;5.13;;
14300;SDS011;7234;59.306;18.024;2024-01-30T03:44:19;10.17;;;5.63;;
14300;SDS011;7234;59.306;18.024;2024-01-30T03:46:50;10.40;;;5.97;;
14300;SDS011;7234;59.306;18.024;2024-01-30T03:49:17;12.67;;;5.47;;
14300;SDS011;7234;59.306;18.024;2024-01-30T03:51:44;9.53;;;5.83;;
14300;SDS011;7234;59.306;18.024;2024-01-30T03:54:12;10.33;;;5.60;;
14300;SDS011;7234;59.306;18.024;2024-01-30T03:56:39;17.17;;;5.10;;
14300;SDS011;7234;59.306;18.024;2024-01-30T03:59:06;11.30;;;5.47;;
14300;SDS011;7234;59.306;18.024;2024-01-30T04:01:33;10.70;;;4.67;;
14300;SDS011;7234;59.306;18.024;2024-01-30T04:04:02;14.47;;;4.83;;
14300;SDS011;7234;59.306;18.024;2024-01-30T04:06:29;10.97;;;4.60;;
14300;SDS011;7234;59.306;18.024;2024-01-30T04:08:56;8.57;;;4.53;;
14300;SDS011;7234;59.306;18.024;2024-01-30T04:11:23;11.07;;;4.77;;
14300;SDS011;7234;59.306;18.024;2024-01-30T04:13:50;9.03;;;4.87;;
14300;SDS011;7234;59.306;18.024;2024-01-30T04:16:20;9.30;;;5.60;;
14300;SDS011;7234;59.306;18.024;2024-01-30T04:18:49;6.97;;;4.23;;
14300;SDS011;7234;59.306;18.024;2024-01-30T04:21:20;7.93;;;4.40;;
14300;SDS011;7234;59.306;18.024;2024-01-30T04:23:47;8.33;;;4.03;;
14300;SDS011;7234;59.306;18.024;2024-01-30T04:26:14;7.87;;;4.43;;
14300;SDS011;7234;59.306;18.024;2024-01-30T04:28:41;7.47;;;4.70;;
14300;SDS011;7234;59.306;18.024;2024-01-30T04:31:08;6.90;;;4.23;;
14300;SDS011;7234;59.306;18.024;2024-01-30T04:33:35;7.90;;;4.33;;
14300;SDS011;7234;59.306;18.024;2024-01-30T04:36:02;8.27;;;4.03;;
14300;SDS011;7234;59.306;18.024;2024-01-30T04:38:31;5.97;;;4.03;;
14300;SDS011;7234;59.306;18.024;2024-01-30T04:40:58;7.80;;;4.43;;
14300;SDS011;7234;59.306;18.024;2024-01-30T04:43:25;7.50;;;4.20;;
14300;SDS011;7234;59.306;18.024;2024-01-30T04:45:52;7.70;;;4.23;;
14300;SDS011;7234;59.306;18.024;2024-01-30T04:48:19;7.97;;;5.10;;
14300;SDS011;7234;59.306;18.024;2024-01-30T04:50:46;8.80;;;4.30;;
14300;SDS011;7234;59.306;18.024;2024-01-30T04:53:13;7.83;;;4.90;;
14300;SDS011;7234;59.306;18.024;2024-01-30T04:55:42;7.57;;;4.63;;
14300;SDS011;7234;59.306;18.024;2024-01-30T04:58:09;7.90;;;4.90;;
14300;SDS011;7234;59.306;18.024;2024-01-30T05:00:36;8.43;;;5.33;;
14300;SDS011;7234;59.306;18.024;2024-01-30T05:03:03;7.03;;;4.90;;
14300;SDS011;7234;59.306;18.024;2024-01-30T05:05:30;10.10;;;4.73;;
14300;SDS011;7234;59.306;18.024;2024-01-30T05:07:57;7.83;;;4.63;;
14300;SDS011;7234;59.306;18.024;2024-01-30T05:10:24;8.13;;;4.90;;
14300;SDS011;7234;59.306;18.024;2024-01-30T05:12:52;8.00;;;5.30;;
14300;SDS011;7234;59.306;18.024;2024-01-30T05:15:19;11.57;;;6.13;;
14300;SDS011;7234;59.306;18.024;2024-01-30T05:17:46;10.23;;;6.17;;
14300;SDS011;7234;59.306;18.024;2024-01-30T05:20:13;24.50;;;6.33;;
14300;SDS011;7234;59.306;18.024;2024-01-30T05:22:40;25.67;;;6.43;;
14300;SDS011;7234;59.306;18.024;2024-01-30T05:25:10;11.33;;;5.50;;
14300;SDS011;7234;59.306;18.024;2024-01-30T05:27:37;11.27;;;6.60;;
14300;SDS011;7234;59.306;18.024;2024-01-30T05:30:06;16.13;;;6.27;;
14300;SDS011;7234;59.306;18.024;2024-01-30T05:32:34;9.73;;;6.03;;
14300;SDS011;7234;59.306;18.024;2024-01-30T05:35:01;14.40;;;6.10;;
14300;SDS011;7234;59.306;18.024;2024-01-30T05:37:28;7.93;;;5.63;;
14300;SDS011;7234;59.306;18.024;2024-01-30T05:39:55;8.83;;;5.40;;
14300;SDS011;7234;59.306;18.024;2024-01-30T05:42:22;9.30;;;6.03;;
14300;SDS011;7234;59.306;18.024;2024-01-30T05:44:49;12.37;;;5.87;;
14300;SDS011;7234;59.306;18.024;2024-01-30T05:47:18;11.70;;;6.27;;
14300;SDS011;7234;59.306;18.024;2024-01-30T05:49:45;13.03;;;6.50;;
14300;SDS011;7234;59.306;18.024;2024-01-30T05:52:12;16.27;;;7.30;;
14300;SDS011;7234;59.306;18.024;2024-01-30T05:54:40;13.17;;;5.93;;
14300;SDS011;7234;59.306;18.024;2024-01-30T05:57:07;9.80;;;5.83;;
14300;SDS011;7234;59.306;18.024;2024-01-30T05:59:34;11.67;;;6.90;;
14300;SDS011;7234;59.306;18.024;2024-01-30T06:02:02;13.87;;;7.03;;
14300;SDS011;7234;59.306;18.024;2024-01-30T06:04:31;14.07;;;7.30;;
14300;SDS011;7234;59.306;18.024;2024-01-30T06:06:58;11.97;;;6.50;;
14300;SDS011;7234;59.306;18.024;2024-01-30T06:09:27;13.00;;;5.90;;
14300;SDS011;7234;59.306;18.024;2024-01-30T06:11:54;15.73;;;6.70;;
14300;SDS011;7234;59.306;18.024;2024-01-30T06:14:21;11.90;;;6.20;;
14300;SDS011;7234;59.306;18.024;2024-01-30T06:16:48;11.83;;;6.60;;
14300;SDS011;7234;59.306;18.024;2024-01-30T06:19:16;11.20;;;7.07;;
14300;SDS011;7234;59.306;18.024;2024-01-30T06:21:44;13.47;;;6.80;;
14300;SDS011;7234;59.306;18.024;2024-01-30T06:24:11;17.47;;;7.17;;
14300;SDS011;7234;59.306;18.024;2024-01-30T06:26:39;15.83;;;7.70;;
14300;SDS011;7234;59.306;18.024;2024-01-30T06:29:06;17.27;;;7.50;;
14300;SDS011;7234;59.306;18.024;2024-01-30T06:31:39;18.27;;;7.53;;
14300;SDS011;7234;59.306;18.024;2024-01-30T06:34:06;15.00;;;7.63;;
14300;SDS011;7234;59.306;18.024;2024-01-30T06:36:33;15.83;;;6.67;;
14300;SDS011;7234;59.306;18.024;2024-01-30T06:39:02;25.47;;;7.20;;
14300;SDS011;7234;59.306;18.024;2024-01-30T06:41:30;16.00;;;7.63;;
14300;SDS011;7234;59.306;18.024;2024-01-30T06:43:59;14.07;;;7.53;;
14300;SDS011;7234;59.306;18.024;2024-01-30T06:46:26;12.83;;;6.00;;
14300;SDS011;7234;59.306;18.024;2024-01-30T06:48:53;8.10;;;5.43;;
14300;SDS011;7234;59.306;18.024;2024-01-30T06:51:20;12.87;;;6.30;;
14300;SDS011;7234;59.306;18.024;2024-01-30T06:53:47;9.80;;;5.97;;
14300;SDS011;7234;59.306;18.024;2024-01-30T06:56:15;8.63;;;5.00;;
14300;SDS011;7234;59.306;18.024;2024-01-30T06:58:46;8.83;;;5.90;;
14300;SDS011;7234;59.306;18.024;2024-01-30T07:01:13;9.30;;;5.60;;
14300;SDS011;7234;59.306;18.024;2024-01-30T07:03:40;8.00;;;5.37;;
14300;SDS011;7234;59.306;18.024;2024-01-30T07:06:08;9.20;;;5.30;;
14300;SDS011;7234;59.306;18.024;2024-01-30T07:08:35;9.43;;;5.37;;
14300;SDS011;7234;59.306;18.024;2024-01-30T07:11:04;10.73;;;4.90;;
14300;SDS011;7234;59.306;18.024;2024-01-30T07:13:32;8.10;;;5.70;;
14300;SDS011;7234;59.306;18.024;2024-01-30T07:16:00;14.37;;;5.47;;
14300;SDS011;7234;59.306;18.024;2024-01-30T07:18:27;8.80;;;5.00;;
14300;SDS011;7234;59.306;18.024;2024-01-30T07:20:55;10.13;;;4.77;;
14300;SDS011;7234;59.306;18.024;2024-01-30T07:23:22;9.83;;;5.27;;
14300;SDS011;7234;59.306;18.024;2024-01-30T07:25:49;8.97;;;4.97;;
14300;SDS011;7234;59.306;18.024;2024-01-30T07:28:16;13.93;;;5.13;;
14300;SDS011;7234;59.306;18.024;2024-01-30T07:30:44;8.13;;;4.80;;
14300;SDS011;7234;59.306;18.024;2024-01-30T07:33:12;12.97;;;5.23;;
14300;SDS011;7234;59.306;18.024;2024-01-30T07:35:39;11.20;;;5.57;;
14300;SDS011;7234;59.306;18.024;2024-01-30T07:38:06;10.63;;;5.43;;
14300;SDS011;7234;59.306;18.024;2024-01-30T07:40:33;11.47;;;5.43;;
14300;SDS011;7234;59.306;18.024;2024-01-30T07:43:00;12.47;;;5.63;;
14300;SDS011;7234;59.306;18.024;2024-01-30T07:45:28;9.53;;;5.53;;
14300;SDS011;7234;59.306;18.024;2024-01-30T07:47:59;10.40;;;5.07;;
14300;SDS011;7234;59.306;18.024;2024-01-30T07:50:26;11.07;;;5.43;;
14300;SDS011;7234;59.306;18.024;2024-01-30T07:52:55;13.07;;;5.53;;
14300;SDS011;7234;59.306;18.024;2024-01-30T07:55:34;9.13;;;4.90;;
14300;SDS011;7234;59.306;18.024;2024-01-30T07:58:14;11.13;;;4.97;;
14300;SDS011;7234;59.306;18.024;2024-01-30T08:00:41;14.00;;;4.93;;
14300;SDS011;7234;59.306;18.024;2024-01-30T08:03:10;10.37;;;4.93;;
14300;SDS011;7234;59.306;18.024;2024-01-30T08:05:38;11.23;;;5.07;;
14300;SDS011;7234;59.306;18.024;2024-01-30T08:08:08;8.27;;;4.63;;
14300;SDS011;7234;59.306;18.024;2024-01-30T08:10:35;11.97;;;4.60;;
14300;SDS011;7234;59.306;18.024;2024-01-30T08:13:03;9.03;;;4.57;;
14300;SDS011;7234;59.306;18.024;2024-01-30T08:15:30;10.43;;;4.80;;
14300;SDS011;7234;59.306;18.024;2024-01-30T08:17:57;14.83;;;5.40;;
14300;SDS011;7234;59.306;18.024;2024-01-30T08:20:26;12.03;;;5.53;;
14300;SDS011;7234;59.306;18.024;2024-01-30T08:22:53;8.20;;;4.83;;
14300;SDS011;7234;59.306;18.024;2024-01-30T08:25:20;11.00;;;4.93;;
14300;SDS011;7234;59.306;18.024;2024-01-30T08:27:47;11.90;;;5.03;;
14300;SDS011;7234;59.306;18.024;2024-01-30T08:30:14;10.53;;;5.40;;
14300;SDS011;7234;59.306;18.024;2024-01-30T08:32:41;8.83;;;5.47;;
14300;SDS011;7234;59.306;18.024;2024-01-30T08:35:08;9.20;;;5.20;;
14300;SDS011;7234;59.306;18.024;2024-01-30T08:37:40;13.23;;;5.47;;
14300;SDS011;7234;59.306;18.024;2024-01-30T08:40:07;11.83;;;6.10;;
14300;SDS011;7234;59.306;18.024;2024-01-30T08:42:35;12.27;;;5.73;;
14300;SDS011;7234;59.306;18.024;2024-01-30T08:45:02;12.80;;;5.97;;
14300;SDS011;7234;59.306;18.024;2024-01-30T08:47:30;12.53;;;6.27;;
14300;SDS011;7234;59.306;18.024;2024-01-30T08:49:56;12.77;;;6.00;;
14300;SDS011;7234;59.306;18.024;2024-01-30T08:52:25;10.37;;;5.83;;
14300;SDS011;7234;59.306;18.024;2024-01-30T08:54:53;12.60;;;5.37;;
14300;SDS011;7234;59.306;18.024;2024-01-30T08:57:20;9.70;;;5.63;;
14300;SDS011;7234;59.306;18.024;2024-01-30T08:59:47;12.40;;;6.50;;
14300;SDS011;7234;59.306;18.024;2024-01-30T09:02:14;13.67;;;6.30;;
14300;SDS011;7234;59.306;18.024;2024-01-30T09:04:43;11.80;;;5.60;;
14300;SDS011;7234;59.306;18.024;2024-01-30T09:07:10;9.20;;;6.03;;
14300;SDS011;7234;59.306;18.024;2024-01-30T09:09:38;16.30;;;6.90;;
14300;SDS011;7234;59.306;18.024;2024-01-30T09:12:07;13.53;;;6.87;;
14300;SDS011;7234;59.306;18.024;2024-01-30T09:14:37;14.83;;;6.37;;
14300;SDS011;7234;59.306;18.024;2024-01-30T09:17:04;14.43;;;6.93;;
14300;SDS011;7234;59.306;18.024;2024-01-30T09:19:31;15.60;;;6.17;;
14300;SDS011;7234;59.306;18.024;2024-01-30T09:21:58;23.17;;;6.37;;
14300;SDS011;7234;59.306;18.024;2024-01-30T09:24:25;20.50;;;7.87;;
14300;SDS011;7234;59.306;18.024;2024-01-30T09:26:53;20.47;;;7.70;;
14300;SDS011;7234;59.306;18.024;2024-01-30T09:29:22;19.37;;;6.70;;
14300;SDS011;7234;59.306;18.024;2024-01-30T09:31:49;22.87;;;6.80;;
14300;SDS011;7234;59.306;18.024;2024-01-30T09:34:16;17.03;;;7.47;;
14300;SDS011;7234;59.306;18.024;2024-01-30T09:36:43;12.73;;;5.70;;
14300;SDS011;7234;59.306;18.024;2024-01-30T09:39:10;13.83;;;5.93;;
14300;SDS011;7234;59.306;18.024;2024-01-30T09:41:47;12.20;;;6.17;;
14300;SDS011;7234;59.306;18.024;2024-01-30T09:44:18;10.00;;;6.50;;
14300;SDS011;7234;59.306;18.024;2024-01-30T09:46:49;15.83;;;5.87;;
14300;SDS011;7234;59.306;18.024;2024-01-30T09:49:17;19.63;;;6.50;;
14300;SDS011;7234;59.306;18.024;2024-01-30T09:51:44;10.13;;;6.47;;
14300;SDS011;7234;59.306;18.024;2024-01-30T09:54:13;12.90;;;6.33;;
14300;SDS011;7234;59.306;18.024;2024-01-30T09:56:42;18.80;;;5.93;;
14300;SDS011;7234;59.306;18.024;2024-01-30T09:59:09;9.93;;;5.33;;
14300;SDS011;7234;59.306;18.024;2024-01-30T10:01:37;12.07;;;5.53;;
14300;SDS011;7234;59.306;18.024;2024-01-30T10:04:06;14.73;;;6.13;;
14300;SDS011;7234;59.306;18.024;2024-01-30T10:06:34;9.93;;;5.53;;
14300;SDS011;7234;59.306;18.024;2024-01-30T10:09:01;10.43;;;5.60;;
14300;SDS011;7234;59.306;18.024;2024-01-30T10:11:29;12.43;;;6.40;;
14300;SDS011;7234;59.306;18.024;2024-01-30T10:13:58;10.60;;;6.27;;
14300;SDS011;7234;59.306;18.024;2024-01-30T10:16:26;11.90;;;5.67;;
14300;SDS011;7234;59.306;18.024;2024-01-30T10:18:55;9.87;;;5.60;;
14300;SDS011;7234;59.306;18.024;2024-01-30T10:21:22;10.67;;;5.97;;
14300;SDS011;7234;59.306;18.024;2024-01-30T10:23:50;11.73;;;5.47;;
14300;SDS011;7234;59.306;18.024;2024-01-30T10:26:17;10.73;;;5.90;;
14300;SDS011;7234;59.306;18.024;2024-01-30T10:28:44;9.97;;;5.90;;
14300;SDS011;7234;59.306;18.024;2024-01-30T10:31:16;15.17;;;6.40;;
14300;SDS011;7234;59.306;18.024;2024-01-30T10:33:44;13.53;;;6.43;;
14300;SDS011;7234;59.306;18.024;2024-01-30T10:36:13;16.10;;;6.50;;
14300;SDS011;7234;59.306;18.024;2024-01-30T10:38:42;11.90;;;7.00;;
14300;SDS011;7234;59.306;18.024;2024-01-30T10:41:11;14.17;;;6.53;;
14300;SDS011;7234;59.306;18.024;2024-01-30T10:43:41;15.73;;;7.30;;
14300;SDS011;7234;59.306;18.024;2024-01-30T10:46:14;15.37;;;6.83;;
14300;SDS011;7234;59.306;18.024;2024-01-30T10:48:46;13.10;;;7.10;;
14300;SDS011;7234;59.306;18.024;2024-01-30T10:51:19;14.53;;;7.30;;
14300;SDS011;7234;59.306;18.024;2024-01-30T10:53:48;14.77;;;6.83;;
14300;SDS011;7234;59.306;18.024;2024-01-30T10:56:17;16.13;;;7.47;;
14300;SDS011;7234;59.306;18.024;2024-01-30T10:58:47;17.30;;;8.07;;
14300;SDS011;7234;59.306;18.024;2024-01-30T11:01:15;21.20;;;8.13;;
14300;SDS011;7234;59.306;18.024;2024-01-30T11:03:43;15.63;;;7.13;;
14300;SDS011;7234;59.306;18.024;2024-01-30T11:06:10;17.13;;;7.30;;
14300;SDS011;7234;59.306;18.024;2024-01-30T11:08:40;14.30;;;7.23;;
14300;SDS011;7234;59.306;18.024;2024-01-30T11:11:09;17.90;;;6.97;;
14300;SDS011;7234;59.306;18.024;2024-01-30T11:13:36;16.13;;;7.50;;
14300;SDS011;7234;59.306;18.024;2024-01-30T11:16:04;20.53;;;7.83;;
14300;SDS011;7234;59.306;18.024;2024-01-30T11:18:32;16.93;;;7.90;;
14300;SDS011;7234;59.306;18.024;2024-01-30T11:21:04;17.33;;;7.53;;
14300;SDS011;7234;59.306;18.024;2024-01-30T11:23:33;12.83;;;6.90;;
14300;SDS011;7234;59.306;18.024;2024-01-30T11:26:03;15.37;;;7.63;;
14300;SDS011;7234;59.306;18.024;2024-01-30T11:28:32;15.57;;;7.77;;
14300;SDS011;7234;59.306;18.024;2024-01-30T11:31:04;16.27;;;7.73;;
14300;SDS011;7234;59.306;18.024;2024-01-30T11:33:32;15.80;;;6.77;;
14300;SDS011;7234;59.306;18.024;2024-01-30T11:36:00;18.67;;;7.80;;
14300;SDS011;7234;59.306;18.024;2024-01-30T11:38:28;17.87;;;8.63;;
14300;SDS011;7234;59.306;18.024;2024-01-30T11:40:55;17.27;;;8.00;;
14300;SDS011;7234;59.306;18.024;2024-01-30T11:43:24;20.73;;;8.83;;
14300;SDS011;7234;59.306;18.024;2024-01-30T11:45:51;16.67;;;8.43;;
14300;SDS011;7234;59.306;18.024;2024-01-30T11:48:18;14.90;;;8.13;;
14300;SDS011;7234;59.306;18.024;2024-01-30T11:50:45;16.77;;;8.47;;
14300;SDS011;7234;59.306;18.024;2024-01-30T11:53:12;16.00;;;8.23;;
14300;SDS011;7234;59.306;18.024;2024-01-30T11:55:40;14.97;;;8.07;;
14300;SDS011;7234;59.306;18.024;2024-01-30T11:58:08;17.70;;;8.67;;
14300;SDS011;7234;59.306;18.024;2024-01-30T12:00:36;18.33;;;8.77;;
14300;SDS011;7234;59.306;18.024;2024-01-30T12:03:04;15.57;;;7.93;;
14300;SDS011;7234;59.306;18.024;2024-01-30T12:05:32;18.80;;;9.17;;
14300;SDS011;7234;59.306;18.024;2024-01-30T12:07:59;17.07;;;7.93;;
14300;SDS011;7234;59.306;18.024;2024-01-30T12:10:26;17.13;;;8.63;;
14300;SDS011;7234;59.306;18.024;2024-01-30T12:12:53;15.33;;;8.00;;
14300;SDS011;7234;59.306;18.024;2024-01-30T12:15:21;13.83;;;8.10;;
14300;SDS011;7234;59.306;18.024;2024-01-30T12:17:50;14.03;;;7.30;;
14300;SDS011;7234;59.306;18.024;2024-01-30T12:20:17;17.60;;;7.90;;
14300;SDS011;7234;59.306;18.024;2024-01-30T12:22:47;13.90;;;7.43;;
14300;SDS011;7234;59.306;18.024;2024-01-30T12:25:15;13.63;;;7.60;;
14300;SDS011;7234;59.306;18.024;2024-01-30T12:27:43;17.63;;;8.47;;
14300;SDS011;7234;59.306;18.024;2024-01-30T12:30:12;15.67;;;8.63;;
14300;SDS011;7234;59.306;18.024;2024-01-30T12:32:40;19.07;;;8.90;;
14300;SDS011;7234;59.306;18.024;2024-01-30T12:35:11;17.33;;;8.47;;
14300;SDS011;7234;59.306;18.024;2024-01-30T12:37:39;16.83;;;8.47;;
14300;SDS011;7234;59.306;18.024;2024-01-30T12:40:07;14.70;;;7.77;;
14300;SDS011;7234;59.306;18.024;2024-01-30T12:42:34;15.73;;;8.70;;
14300;SDS011;7234;59.306;18.024;2024-01-30T12:45:02;14.87;;;7.73;;
14300;SDS011;7234;59.306;18.024;2024-01-30T12:47:30;16.00;;;8.13;;
14300;SDS011;7234;59.306;18.024;2024-01-30T12:49:58;14.27;;;7.40;;
14300;SDS011;7234;59.306;18.024;2024-01-30T12:52:26;17.57;;;8.03;;
14300;SDS011;7234;59.306;18.024;2024-01-30T12:54:54;13.93;;;8.37;;
14300;SDS011;7234;59.306;18.024;2024-01-30T12:57:21;15.07;;;8.30;;
14300;SDS011;7234;59.306;18.024;2024-01-30T12:59:48;14.27;;;8.07;;
14300;SDS011;7234;59.306;18.024;2024-01-30T13:02:15;16.23;;;7.97;;
14300;SDS011;7234;59.306;18.024;2024-01-30T13:04:45;22.93;;;9.07;;
14300;SDS011;7234;59.306;18.024;2024-01-30T13:07:12;11.70;;;6.80;;
14300;SDS011;7234;59.306;18.024;2024-01-30T13:09:41;13.37;;;7.07;;
14300;SDS011;7234;59.306;18.024;2024-01-30T13:12:08;13.73;;;7.33;;
14300;SDS011;7234;59.306;18.024;2024-01-30T13:14:35;15.23;;;7.20;;
14300;SDS011;7234;59.306;18.024;2024-01-30T13:17:02;16.17;;;7.90;;
14300;SDS011;7234;59.306;18.024;2024-01-30T13:19:29;15.40;;;7.93;;
14300;SDS011;7234;59.306;18.024;2024-01-30T13:21:56;13.93;;;6.87;;
14300;SDS011;7234;59.306;18.024;2024-01-30T13:24:23;16.70;;;8.10;;
14300;SDS011;7234;59.306;18.024;2024-01-30T13:26:52;11.80;;;6.87;;
14300;SDS011;7234;59.306;18.024;2024-01-30T13:29:19;15.67;;;7.30;;
14300;SDS011;7234;59.306;18.024;2024-01-30T13:31:46;13.27;;;7.47;;
14300;SDS011;7234;59.306;18.024;2024-01-30T13:34:13;14.50;;;7.33;;
14300;SDS011;7234;59.306;18.024;2024-01-30T13:36:40;19.17;;;7.43;;
14300;SDS011;7234;59.306;18.024;2024-01-30T13:39:08;15.33;;;7.47;;
14300;SDS011;7234;59.306;18.024;2024-01-30T13:41:37;16.77;;;7.53;;
14300;SDS011;7234;59.306;18.024;2024-01-30T13:44:06;12.60;;;6.93;;
14300;SDS011;7234;59.306;18.024;2024-01-30T13:46:33;12.80;;;7.03;;
14300;SDS011;7234;59.306;18.024;2024-01-30T13:49:00;11.50;;;6.90;;
14300;SDS011;7234;59.306;18.024;2024-01-30T13:51:27;12.23;;;6.43;;
14300;SDS011;7234;59.306;18.024;2024-01-30T13:53:54;11.73;;;6.90;;
14300;SDS011;7234;59.306;18.024;2024-01-30T13:56:22;13.07;;;6.50;;
14300;SDS011;7234;59.306;18.024;2024-01-30T13:58:49;11.27;;;6.67;;
14300;SDS011;7234;59.306;18.024;2024-01-30T14:01:18;11.93;;;6.70;;
14300;SDS011;7234;59.306;18.024;2024-01-30T14:03:45;9.30;;;5.57;;
14300;SDS011;7234;59.306;18.024;2024-01-30T14:06:12;11.27;;;6.00;;
14300;SDS011;7234;59.306;18.024;2024-01-30T14:08:39;11.07;;;6.83;;
14300;SDS011;7234;59.306;18.024;2024-01-30T14:11:07;13.70;;;6.30;;
14300;SDS011;7234;59.306;18.024;2024-01-30T14:13:34;9.10;;;5.70;;
14300;SDS011;7234;59.306;18.024;2024-01-30T14:16:03;12.43;;;6.37;;
14300;SDS011;7234;59.306;18.024;2024-01-30T14:18:34;10.83;;;6.83;;
14300;SDS011;7234;59.306;18.024;2024-01-30T14:21:01;8.20;;;6.03;;
14300;SDS011;7234;59.306;18.024;2024-01-30T14:23:30;11.40;;;6.50;;
14300;SDS011;7234;59.306;18.024;2024-01-30T14:25:57;11.03;;;6.80;;
14300;SDS011;7234;59.306;18.024;2024-01-30T14:28:24;13.93;;;7.03;;
14300;SDS011;7234;59.306;18.024;2024-01-30T14:30:51;14.67;;;6.10;;
14300;SDS011;7234;59.306;18.024;2024-01-30T14:33:18;18.47;;;7.53;;
14300;SDS011;7234;59.306;18.024;2024-01-30T14:35:46;12.17;;;6.73;;
14300;SDS011;7234;59.306;18.024;2024-01-30T14:38:13;14.40;;;7.07;;